createdAt,value
2023-05-15T00:01:23.394Z,2.80
2023-05-15T00:03:52.090Z,2.20
2023-05-15T00:06:21.563Z,2.50
2023-05-15T00:08:49.395Z,2.73
2023-05-15T00:11:17.271Z,2.97
2023-05-15T00:13:45.245Z,2.40
2023-05-15T00:16:13.216Z,2.53
2023-05-15T00:18:41.748Z,2.83
2023-05-15T00:21:09.628Z,2.13
2023-05-15T00:23:38.871Z,2.50
2023-05-15T00:26:06.827Z,2.70
2023-05-15T00:28:34.801Z,2.53
2023-05-15T00:31:02.650Z,2.63
2023-05-15T00:33:31.164Z,2.60
2023-05-15T00:35:59.075Z,2.67
2023-05-15T00:38:26.964Z,2.53
2023-05-15T00:40:56.968Z,2.23
2023-05-15T00:43:27.019Z,2.70
2023-05-15T00:45:55.453Z,2.90
2023-05-15T00:48:25.493Z,2.80
2023-05-15T00:50:53.458Z,2.40
2023-05-15T00:53:21.408Z,2.90
2023-05-15T00:55:51.241Z,3.07
2023-05-15T00:58:23.188Z,2.57
2023-05-15T01:00:52.267Z,2.63
2023-05-15T01:03:20.545Z,2.83
2023-05-15T01:05:48.627Z,2.73
2023-05-15T01:08:22.041Z,2.63
2023-05-15T01:10:51.059Z,2.50
2023-05-15T01:13:22.225Z,2.47
2023-05-15T01:15:51.216Z,2.67
2023-05-15T01:18:19.272Z,5.33
2023-05-15T01:21:08.336Z,3.30
2023-05-15T01:23:47.141Z,2.70
2023-05-15T01:26:59.629Z,3.87
2023-05-15T01:29:34.609Z,3.20
2023-05-15T01:32:07.782Z,3.13
2023-05-15T01:34:45.983Z,3.17
2023-05-15T01:37:18.365Z,2.97
2023-05-15T01:39:50.768Z,2.77
2023-05-15T01:42:21.627Z,4.60
2023-05-15T01:44:56.206Z,3.23
2023-05-15T01:47:34.572Z,3.00
2023-05-15T01:50:03.859Z,3.10
2023-05-15T01:52:34.885Z,4.00
2023-05-15T01:55:03.895Z,3.00
2023-05-15T01:57:32.868Z,3.20
2023-05-15T02:00:03.988Z,2.70
2023-05-15T02:02:32.639Z,2.80
2023-05-15T02:05:01.229Z,2.73
2023-05-15T02:07:29.305Z,3.00
2023-05-15T02:09:58.846Z,2.80
2023-05-15T02:12:28.461Z,3.00
2023-05-15T02:14:59.444Z,3.00
2023-05-15T02:17:29.526Z,2.83
2023-05-15T02:19:57.633Z,2.97
2023-05-15T02:22:25.569Z,2.90
2023-05-15T02:24:53.642Z,3.17
2023-05-15T02:27:26.540Z,3.17
2023-05-15T02:30:07.894Z,2.93
2023-05-15T02:32:45.168Z,2.80
2023-05-15T02:35:20.399Z,2.60
2023-05-15T02:37:52.491Z,3.20
2023-05-15T02:40:24.413Z,2.60
2023-05-15T02:42:54.442Z,3.07
2023-05-15T02:45:25.324Z,3.57
2023-05-15T02:47:55.218Z,2.90
2023-05-15T02:50:23.724Z,3.03
2023-05-15T02:52:51.572Z,3.50
2023-05-15T02:55:19.588Z,3.07
2023-05-15T02:57:47.438Z,3.27
2023-05-15T03:00:16.377Z,3.40
2023-05-15T03:02:44.302Z,3.60
2023-05-15T03:05:13.712Z,3.50
2023-05-15T03:07:42.427Z,3.30
2023-05-15T03:10:10.560Z,3.53
2023-05-15T03:12:38.752Z,3.80
2023-05-15T03:15:07.873Z,3.73
2023-05-15T03:17:35.936Z,4.43
2023-05-15T03:20:04.829Z,3.70
2023-05-15T03:22:34.086Z,4.40
2023-05-15T03:25:02.717Z,4.10
2023-05-15T03:27:30.699Z,4.40
2023-05-15T03:29:58.646Z,5.07
2023-05-15T03:32:26.644Z,4.23
2023-05-15T03:34:54.541Z,4.27
2023-05-15T03:37:22.485Z,4.53
2023-05-15T03:39:51.952Z,4.50
2023-05-15T03:42:23.424Z,4.70
2023-05-15T03:44:51.598Z,4.00
2023-05-15T03:47:19.500Z,4.30
2023-05-15T03:49:47.439Z,4.70
2023-05-15T03:52:15.497Z,4.73
2023-05-15T03:54:44.237Z,4.73
2023-05-15T03:57:13.582Z,5.40
2023-05-15T03:59:41.663Z,5.93
2023-05-15T04:02:09.583Z,5.70
2023-05-15T04:04:38.591Z,5.90
2023-05-15T04:07:07.078Z,7.87
2023-05-15T04:09:34.910Z,5.70
2023-05-15T04:12:02.776Z,5.50
2023-05-15T04:14:32.088Z,5.67
2023-05-15T04:17:00.176Z,4.57
2023-05-15T04:19:27.993Z,5.17
2023-05-15T04:21:56.173Z,4.77
2023-05-15T04:24:24.004Z,4.97
2023-05-15T04:26:52.041Z,4.87
2023-05-15T04:29:19.957Z,6.17
2023-05-15T04:31:49.215Z,5.17
2023-05-15T04:34:17.116Z,5.10
2023-05-15T04:36:45.045Z,5.03
2023-05-15T04:39:13.121Z,5.70
2023-05-15T04:41:40.978Z,5.10
2023-05-15T04:44:08.823Z,5.23
2023-05-15T04:46:37.642Z,5.17
2023-05-15T04:49:07.419Z,5.53
2023-05-15T04:51:35.256Z,5.07
2023-05-15T04:54:03.408Z,5.97
2023-05-15T04:56:31.273Z,5.67
2023-05-15T04:58:59.317Z,5.50
2023-05-15T05:01:27.301Z,5.30
2023-05-15T05:03:55.161Z,5.53
2023-05-15T05:06:24.866Z,5.23
2023-05-15T05:08:52.761Z,5.47
2023-05-15T05:11:21.588Z,5.27
2023-05-15T05:13:50.951Z,6.57
2023-05-15T05:16:18.888Z,4.90
2023-05-15T05:18:47.054Z,5.60
2023-05-15T05:21:14.948Z,5.30
2023-05-15T05:23:44.177Z,5.23
2023-05-15T05:26:12.059Z,5.47
2023-05-15T05:28:39.918Z,6.50
2023-05-15T05:31:08.491Z,6.17
2023-05-15T05:33:36.366Z,5.60
2023-05-15T05:36:05.250Z,6.10
2023-05-15T05:38:33.424Z,5.30
2023-05-15T05:41:03.138Z,5.20
2023-05-15T05:43:33.016Z,5.20
2023-05-15T05:46:01.197Z,5.27
2023-05-15T05:48:29.076Z,5.50
2023-05-15T05:50:56.935Z,5.47
2023-05-15T05:53:24.794Z,6.73
2023-05-15T05:55:53.048Z,6.73
2023-05-15T05:58:26.007Z,6.27
2023-05-15T06:00:54.641Z,5.73
2023-05-15T06:03:22.952Z,4.70
2023-05-15T06:05:51.017Z,5.47
2023-05-15T06:08:19.685Z,4.70
2023-05-15T06:10:47.619Z,4.90
2023-05-15T06:13:15.741Z,5.37
2023-05-15T06:15:46.444Z,4.50
2023-05-15T06:18:14.352Z,4.77
2023-05-15T06:20:42.825Z,4.53
2023-05-15T06:23:10.887Z,5.07
2023-05-15T06:25:39.028Z,4.87
2023-05-15T06:28:07.242Z,6.20
2023-05-15T06:30:35.239Z,4.70
2023-05-15T06:33:04.515Z,5.13
2023-05-15T06:35:32.399Z,4.93
2023-05-15T06:38:00.361Z,4.40
2023-05-15T06:40:28.393Z,5.10
2023-05-15T06:42:56.391Z,5.43
2023-05-15T06:45:24.479Z,4.80
2023-05-15T06:47:52.614Z,4.60
2023-05-15T06:50:22.146Z,5.23
2023-05-15T06:52:50.050Z,6.70
2023-05-15T06:55:17.904Z,5.10
2023-05-15T06:57:45.878Z,5.10
2023-05-15T07:00:15.069Z,4.93
2023-05-15T07:02:43.880Z,5.27
2023-05-15T07:05:12.394Z,4.90
2023-05-15T07:07:44.223Z,4.40
2023-05-15T07:10:12.502Z,4.90
2023-05-15T07:12:40.344Z,4.20
2023-05-15T07:15:09.202Z,4.10
2023-05-15T07:17:37.119Z,4.73
2023-05-15T07:20:06.811Z,3.70
2023-05-15T07:22:41.537Z,3.30
2023-05-15T07:25:17.732Z,3.30
2023-05-15T07:27:45.626Z,3.90
2023-05-15T07:30:14.417Z,3.30
2023-05-15T07:32:42.432Z,3.33
2023-05-15T07:35:11.542Z,3.03
2023-05-15T07:37:39.532Z,3.33
2023-05-15T07:40:08.636Z,3.30
2023-05-15T07:42:40.077Z,3.00
2023-05-15T07:45:09.112Z,4.83
2023-05-15T07:47:37.153Z,3.63
2023-05-15T07:50:05.569Z,3.47
2023-05-15T07:52:33.493Z,4.32
2023-05-15T07:55:01.348Z,3.00
2023-05-15T07:57:29.209Z,3.30
2023-05-15T07:59:59.511Z,3.42
2023-05-15T08:02:27.466Z,2.97
2023-05-15T08:04:55.395Z,2.90
2023-05-15T08:07:23.290Z,3.20
2023-05-15T08:09:52.069Z,3.63
2023-05-15T08:12:21.864Z,3.33
2023-05-15T08:14:50.731Z,2.78
2023-05-15T08:17:21.183Z,2.97
2023-05-15T08:19:52.025Z,3.20
2023-05-15T08:22:20.067Z,3.20
2023-05-15T08:24:47.930Z,3.30
2023-05-15T08:27:15.837Z,3.20
2023-05-15T08:29:43.722Z,3.47
2023-05-15T08:32:11.631Z,3.60
2023-05-15T08:34:40.882Z,3.35
2023-05-15T08:37:08.737Z,3.20
2023-05-15T08:39:36.603Z,4.13
2023-05-15T08:42:10.315Z,3.65
2023-05-15T08:44:39.412Z,3.80
2023-05-15T08:47:08.071Z,4.05
2023-05-15T08:49:46.058Z,3.70
2023-05-15T08:52:16.241Z,3.47
2023-05-15T08:54:45.489Z,3.72
2023-05-15T08:57:15.861Z,3.70
2023-05-15T08:59:45.164Z,3.65
2023-05-15T09:02:13.736Z,3.83
2023-05-15T09:04:41.664Z,3.92
2023-05-15T09:07:11.474Z,3.40
2023-05-15T09:09:42.405Z,4.30
2023-05-15T09:12:12.369Z,4.20
2023-05-15T09:14:40.338Z,4.10
2023-05-15T09:17:08.601Z,4.38
2023-05-15T09:19:39.488Z,4.45
2023-05-15T09:22:18.108Z,4.45
2023-05-15T09:24:48.386Z,4.15
2023-05-15T09:27:16.345Z,4.32
2023-05-15T09:29:44.364Z,3.80
2023-05-15T09:32:14.108Z,4.60
2023-05-15T09:34:43.479Z,5.03
2023-05-15T09:37:12.397Z,4.67
2023-05-15T09:39:43.588Z,4.77
2023-05-15T09:42:16.172Z,4.83
2023-05-15T09:44:44.904Z,4.47
2023-05-15T09:47:14.311Z,4.83
2023-05-15T09:49:45.516Z,3.90
2023-05-15T09:52:13.453Z,3.40
2023-05-15T09:54:41.400Z,3.77
2023-05-15T09:57:11.617Z,3.73
2023-05-15T09:59:46.423Z,3.93
2023-05-15T10:02:15.819Z,3.90
2023-05-15T10:04:43.660Z,3.90
2023-05-15T10:07:13.018Z,3.80
2023-05-15T10:09:41.224Z,3.30
2023-05-15T10:12:12.598Z,4.00
2023-05-15T10:14:40.525Z,3.53
2023-05-15T10:17:11.326Z,3.67
2023-05-15T10:19:50.437Z,3.47
2023-05-15T10:22:28.730Z,4.05
2023-05-15T10:25:03.852Z,3.50
2023-05-15T10:27:34.258Z,3.30
2023-05-15T10:30:04.264Z,3.10
2023-05-15T10:32:35.155Z,2.85
2023-05-15T10:35:04.385Z,3.42
2023-05-15T10:37:33.234Z,3.47
2023-05-15T10:40:02.765Z,3.47
2023-05-15T10:42:30.803Z,3.75
2023-05-15T10:45:02.708Z,3.72
2023-05-15T10:47:36.106Z,4.20
2023-05-15T10:50:05.885Z,4.57
2023-05-15T10:52:34.256Z,4.63
2023-05-15T10:55:03.665Z,4.47
2023-05-15T10:57:31.879Z,4.85
2023-05-15T11:00:01.278Z,4.90
2023-05-15T11:02:31.600Z,4.90
2023-05-15T11:05:02.256Z,4.83
2023-05-15T11:07:30.474Z,4.78
2023-05-15T11:09:58.488Z,4.00
2023-05-15T11:12:26.421Z,4.70
2023-05-15T11:15:19.258Z,4.55
2023-05-15T11:18:03.907Z,5.30
2023-05-15T11:20:40.375Z,4.63
2023-05-15T11:23:08.788Z,4.72
2023-05-15T11:25:37.735Z,5.45
2023-05-15T11:28:07.526Z,4.78
2023-05-15T11:30:37.525Z,3.30
2023-05-15T11:33:08.858Z,4.20
2023-05-15T11:35:40.095Z,3.60
2023-05-15T11:38:13.675Z,3.45
2023-05-15T11:40:46.541Z,2.78
2023-05-15T11:43:22.653Z,4.20
2023-05-15T11:45:53.195Z,4.32
2023-05-15T11:48:21.632Z,4.20
2023-05-15T11:50:53.716Z,4.70
2023-05-15T11:53:23.197Z,6.17
2023-05-15T11:55:54.372Z,3.40
2023-05-15T11:58:24.274Z,4.90
2023-05-15T12:00:53.551Z,7.53
2023-05-15T12:03:25.758Z,5.93
2023-05-15T12:05:59.398Z,7.17
2023-05-15T12:08:33.411Z,4.20
2023-05-15T12:11:02.127Z,5.03
2023-05-15T12:13:31.463Z,3.80
2023-05-15T12:16:00.162Z,4.63
2023-05-15T12:18:28.118Z,4.33
2023-05-15T12:20:57.811Z,4.17
2023-05-15T12:23:26.873Z,4.72
2023-05-15T12:25:58.828Z,3.60
2023-05-15T12:28:27.732Z,5.97
2023-05-15T12:30:56.396Z,3.47
2023-05-15T12:33:24.870Z,3.83
2023-05-15T12:35:58.913Z,3.83
2023-05-15T12:38:30.765Z,3.03
2023-05-15T12:40:59.558Z,5.18
2023-05-15T12:43:27.906Z,2.92
2023-05-15T12:45:56.365Z,3.20
2023-05-15T12:48:24.712Z,3.25
2023-05-15T12:50:52.627Z,2.83
2023-05-15T12:53:22.852Z,3.08
2023-05-15T12:55:52.399Z,3.30
2023-05-15T12:58:21.235Z,3.60
2023-05-15T13:00:50.806Z,2.95
2023-05-15T13:03:22.024Z,3.17
2023-05-15T13:05:52.777Z,2.30
2023-05-15T13:08:20.668Z,3.00
2023-05-15T13:10:48.950Z,2.95
2023-05-15T13:13:18.205Z,4.50
2023-05-15T13:15:46.865Z,2.83
2023-05-15T13:18:16.201Z,3.15
2023-05-15T13:20:45.594Z,2.97
2023-05-15T13:23:16.077Z,3.17
2023-05-15T13:25:44.234Z,2.80
2023-05-15T13:28:12.838Z,3.30
2023-05-15T13:30:42.834Z,3.38
2023-05-15T13:33:12.426Z,3.13
2023-05-15T13:35:41.255Z,3.20
2023-05-15T13:38:11.771Z,3.10
2023-05-15T13:40:40.198Z,3.33
2023-05-15T13:43:08.090Z,3.35
2023-05-15T13:45:36.600Z,2.97
2023-05-15T13:48:06.357Z,3.22
2023-05-15T13:50:34.310Z,2.95
2023-05-15T13:53:02.204Z,3.72
2023-05-15T13:55:30.094Z,2.75
2023-05-15T13:57:58.037Z,3.53
2023-05-15T14:00:28.199Z,3.03
2023-05-15T14:02:56.266Z,2.87
2023-05-15T14:05:25.529Z,2.50
2023-05-15T14:07:53.386Z,2.63
2023-05-15T14:10:21.363Z,3.75
2023-05-15T14:12:49.195Z,2.88
2023-05-15T14:15:17.513Z,3.17
2023-05-15T14:17:48.411Z,2.90
2023-05-15T14:20:16.310Z,2.85
2023-05-15T14:22:45.557Z,3.90
2023-05-15T14:25:16.503Z,3.47
2023-05-15T14:27:44.389Z,3.10
2023-05-15T14:30:13.911Z,2.80
2023-05-15T14:32:41.923Z,2.93
2023-05-15T14:35:09.984Z,2.83
2023-05-15T14:37:37.992Z,2.70
2023-05-15T14:40:09.082Z,3.20
2023-05-15T14:42:37.129Z,3.20
2023-05-15T14:45:05.493Z,3.27
2023-05-15T14:47:36.065Z,2.97
2023-05-15T14:50:04.340Z,2.80
2023-05-15T14:52:33.688Z,3.40
2023-05-15T14:55:09.103Z,3.77
2023-05-15T14:57:39.379Z,3.40
2023-05-15T15:00:09.500Z,3.80
2023-05-15T15:02:37.534Z,11.97
2023-05-15T15:05:06.015Z,5.67
2023-05-15T15:08:00.694Z,3.53
2023-05-15T15:10:28.999Z,4.23
2023-05-15T15:13:00.113Z,3.30
2023-05-15T15:15:28.646Z,3.70
2023-05-15T15:17:58.038Z,3.87
2023-05-15T15:20:29.877Z,4.80
2023-05-15T15:22:57.892Z,5.33
2023-05-15T15:25:30.193Z,13.17
2023-05-15T15:28:01.532Z,4.47
2023-05-15T15:30:29.424Z,4.23
2023-05-15T15:32:57.918Z,6.43
2023-05-15T15:35:26.187Z,4.50
2023-05-15T15:37:54.178Z,3.90
2023-05-15T15:40:25.681Z,6.00
2023-05-15T15:42:54.313Z,4.20
2023-05-15T15:45:23.718Z,4.30
2023-05-15T15:47:51.571Z,3.93
2023-05-15T15:50:19.490Z,3.30
2023-05-15T15:52:48.124Z,3.50
2023-05-15T15:55:16.188Z,4.70
2023-05-15T15:57:44.147Z,3.73
2023-05-15T16:00:13.025Z,3.90
2023-05-15T16:02:42.694Z,3.33
2023-05-15T16:05:11.119Z,3.20
2023-05-15T16:07:38.988Z,3.30
2023-05-15T16:10:12.859Z,3.30
2023-05-15T16:12:55.272Z,3.43
2023-05-15T16:15:24.253Z,3.63
2023-05-15T16:17:55.042Z,3.63
2023-05-15T16:20:23.668Z,3.50
2023-05-15T16:22:51.713Z,3.60
2023-05-15T16:25:19.731Z,3.43
2023-05-15T16:27:47.740Z,4.10
2023-05-15T16:30:15.863Z,3.93
2023-05-15T16:32:43.857Z,3.90
2023-05-15T16:35:13.174Z,3.57
2023-05-15T16:37:41.010Z,4.03
2023-05-15T16:40:09.883Z,3.73
2023-05-15T16:42:38.895Z,4.20
2023-05-15T16:45:08.332Z,4.17
2023-05-15T16:47:38.418Z,3.97
2023-05-15T16:50:07.341Z,4.03
2023-05-15T16:52:38.677Z,4.10
2023-05-15T16:55:07.492Z,4.50
2023-05-15T16:57:35.606Z,3.50
2023-05-15T17:00:03.650Z,3.97
2023-05-15T17:02:31.526Z,4.00
2023-05-15T17:04:59.553Z,3.90
2023-05-15T17:07:27.415Z,4.03
2023-05-15T17:09:56.652Z,4.30
2023-05-15T17:12:24.852Z,4.20
2023-05-15T17:14:52.709Z,4.20
2023-05-15T17:17:20.599Z,4.40
2023-05-15T17:19:48.439Z,3.80
2023-05-15T17:22:16.293Z,4.23
2023-05-15T17:24:51.402Z,5.20
2023-05-15T17:27:21.376Z,4.10
2023-05-15T17:29:49.741Z,4.00
2023-05-15T17:32:18.313Z,3.97
2023-05-15T17:34:46.840Z,4.23
2023-05-15T17:37:15.658Z,4.43
2023-05-15T17:39:43.701Z,4.70
2023-05-15T17:42:11.613Z,4.40
2023-05-15T17:44:40.924Z,4.30
2023-05-15T17:47:10.231Z,4.63
2023-05-15T17:49:39.167Z,3.90
2023-05-15T17:52:07.282Z,3.77
2023-05-15T17:54:35.155Z,4.30
2023-05-15T17:57:03.143Z,4.00
2023-05-15T17:59:31.276Z,4.10
2023-05-15T18:02:00.879Z,4.20
2023-05-15T18:04:28.826Z,4.53
2023-05-15T18:06:56.736Z,4.33
2023-05-15T18:09:24.917Z,4.50
2023-05-15T18:11:52.858Z,4.57
2023-05-15T18:14:20.756Z,4.70
2023-05-15T18:16:48.658Z,4.50
2023-05-15T18:19:18.242Z,4.87
2023-05-15T18:21:46.316Z,4.80
2023-05-15T18:24:14.256Z,4.57
2023-05-15T18:26:42.158Z,4.20
2023-05-15T18:29:10.111Z,4.50
2023-05-15T18:31:38.052Z,4.27
2023-05-15T18:34:05.985Z,5.03
2023-05-15T18:36:35.612Z,3.93
2023-05-15T18:39:03.578Z,4.37
2023-05-15T18:41:31.446Z,4.40
2023-05-15T18:43:59.491Z,4.23
2023-05-15T18:46:28.521Z,4.43
2023-05-15T18:48:56.473Z,4.17
2023-05-15T18:51:24.725Z,4.43
2023-05-15T18:53:53.980Z,4.60
2023-05-15T18:56:22.638Z,4.30
2023-05-15T18:58:50.513Z,4.30
2023-05-15T19:01:18.456Z,4.23
2023-05-15T19:03:46.402Z,4.57
2023-05-15T19:06:19.766Z,4.73
2023-05-15T19:08:48.370Z,4.50
2023-05-15T19:11:17.966Z,4.97
2023-05-15T19:13:45.854Z,4.57
2023-05-15T19:16:13.799Z,4.83
2023-05-15T19:18:41.754Z,5.47
2023-05-15T19:21:10.014Z,4.73
2023-05-15T19:23:37.942Z,5.03
2023-05-15T19:26:05.920Z,4.50
2023-05-15T19:28:35.756Z,4.30
2023-05-15T19:31:04.315Z,5.03
2023-05-15T19:33:32.260Z,5.20
2023-05-15T19:36:00.131Z,5.00
2023-05-15T19:38:28.019Z,5.70
2023-05-15T19:40:55.898Z,5.07
2023-05-15T19:43:23.758Z,4.93
2023-05-15T19:45:53.116Z,6.00
2023-05-15T19:48:20.972Z,5.13
2023-05-15T19:50:48.840Z,5.40
2023-05-15T19:53:16.713Z,5.33
2023-05-15T19:55:44.805Z,4.63
2023-05-15T19:58:12.671Z,5.20
2023-05-15T20:00:41.162Z,5.63
2023-05-15T20:03:10.480Z,5.47
2023-05-15T20:05:41.055Z,5.50
2023-05-15T20:08:08.879Z,5.97
2023-05-15T20:10:36.918Z,5.50
2023-05-15T20:13:04.819Z,6.10
2023-05-15T20:15:33.567Z,6.20
2023-05-15T20:18:01.475Z,5.57
2023-05-15T20:20:31.149Z,5.60
2023-05-15T20:22:59.647Z,5.50
2023-05-15T20:25:29.060Z,6.57
2023-05-15T20:27:58.767Z,5.83
2023-05-15T20:30:28.209Z,5.70
2023-05-15T20:32:56.525Z,6.17
2023-05-15T20:35:25.395Z,5.80
2023-05-15T20:37:56.409Z,5.63
2023-05-15T20:40:26.216Z,6.00
2023-05-15T20:42:54.350Z,6.40
2023-05-15T20:45:22.503Z,5.60
2023-05-15T20:47:50.705Z,6.23
2023-05-15T20:50:18.917Z,6.20
2023-05-15T20:52:47.222Z,6.50
2023-05-15T20:55:19.670Z,6.90
2023-05-15T20:57:49.445Z,6.63
2023-05-15T21:00:19.353Z,6.60
2023-05-15T21:02:47.537Z,7.00
2023-05-15T21:05:15.561Z,6.83
2023-05-15T21:07:43.597Z,6.83
2023-05-15T21:10:11.994Z,6.60
2023-05-15T21:12:42.201Z,6.50
2023-05-15T21:15:11.169Z,7.23
2023-05-15T21:17:39.789Z,6.97
2023-05-15T21:20:09.040Z,7.27
2023-05-15T21:22:36.928Z,7.47
2023-05-15T21:25:05.119Z,6.47
2023-05-15T21:27:33.115Z,5.90
2023-05-15T21:30:02.405Z,10.43
2023-05-15T21:32:30.282Z,6.17
2023-05-15T21:34:58.303Z,5.83
2023-05-15T21:37:26.171Z,7.00
2023-05-15T21:39:54.097Z,6.40
2023-05-15T21:42:22.027Z,7.20
2023-05-15T21:44:49.859Z,7.00
2023-05-15T21:47:19.143Z,7.63
2023-05-15T21:49:47.006Z,6.87
2023-05-15T21:52:14.863Z,6.77
2023-05-15T21:54:43.933Z,6.53
2023-05-15T21:57:12.036Z,8.17
2023-05-15T21:59:39.930Z,5.53
2023-05-15T22:02:09.371Z,6.23
2023-05-15T22:04:38.649Z,6.33
2023-05-15T22:07:06.725Z,7.17
2023-05-15T22:09:35.008Z,7.57
2023-05-15T22:12:02.999Z,7.27
2023-05-15T22:14:30.849Z,6.80
2023-05-15T22:16:58.903Z,7.90
2023-05-15T22:19:32.987Z,8.90
2023-05-15T22:22:03.472Z,8.60
2023-05-15T22:24:31.423Z,7.70
2023-05-15T22:26:59.660Z,6.07
2023-05-15T22:29:27.728Z,7.17
2023-05-15T22:31:55.724Z,8.30
2023-05-15T22:34:25.343Z,7.60
2023-05-15T22:39:23.563Z,8.20
2023-05-15T22:41:51.526Z,8.07
2023-05-15T22:44:19.404Z,7.43
2023-05-15T22:46:47.494Z,8.23
2023-05-15T22:49:19.300Z,8.53
2023-05-15T22:51:47.513Z,8.03
2023-05-15T22:54:15.370Z,6.70
2023-05-15T22:56:44.597Z,8.40
2023-05-15T22:59:12.438Z,7.13
2023-05-15T23:01:40.402Z,9.73
2023-05-15T23:04:08.336Z,7.80
2023-05-15T23:06:36.468Z,7.80
2023-05-15T23:09:05.320Z,7.73
2023-05-15T23:11:33.218Z,7.23
2023-05-15T23:14:03.055Z,7.80
2023-05-15T23:16:31.026Z,7.43
2023-05-15T23:18:58.943Z,6.70
2023-05-15T23:21:26.946Z,6.40
2023-05-15T23:23:55.025Z,6.67
2023-05-15T23:26:23.023Z,6.47
2023-05-15T23:28:51.109Z,6.77
2023-05-15T23:31:20.545Z,6.83
2023-05-15T23:33:48.428Z,6.97
2023-05-15T23:36:16.385Z,6.80
2023-05-15T23:38:44.602Z,7.30
2023-05-15T23:41:12.446Z,7.90
2023-05-15T23:43:40.358Z,7.90
2023-05-15T23:46:08.224Z,8.77
2023-05-15T23:48:37.586Z,7.47
2023-05-15T23:51:05.979Z,7.93
2023-05-15T23:53:33.840Z,8.07
2023-05-15T23:56:01.751Z,7.50
2023-05-15T23:58:29.593Z,7.83
